Portada
METAR-TAF:

METAR-TAF

Aeroports :

Key West, Florida, Estats Units d'Amèrica

latitud: 24-34-46N, longitud: 081-41-02W, altitud: 1 m

Observació

L'informe es va fer fa 54 minuts, a les 21:53 UTC
Vent 5 kt del Sud/Sud-Est
Temperatura 26°C
Humitat 74%
Pressió 1014 hPa
Visibilitat: 16.1 km
Escasses núvols a una alçada de 2500 ft

METAR: KNQX 152153Z 16005KT 10SM FEW025 26/21 A2993 RMK AO2 SLP134 T02610206

Hora: 18:47 (22:47 UTC)

Pronòstic

Pronòstic vàlid del 15 a les 15 UTC al 16 a les 15 UTC
Vent 12 kt del Sud/Sud-Est
Visibilitat 10 km o més
Núvols disperses a una alçada de 2700 ft
Núvols disperses a una alçada de 25000 ft
Evolucionant progressivament
l' 15 a les 21 UTC al 15 a les 23 UTC
Vent 5 kt del Sud-Est
Visibilitat 10 km o més
Escasses núvols a una alçada de 2700 ft
Escasses núvols a una alçada de 25000 ft

TAF: KNQX 1515/1615 15012KT 9999 SCT027 SCT250 QNH2989INS BECMG 1521/1523 14005KT 9999 FEW027 FEW250 QNH2990INS T28/1519Z T22/1611Z FN20027

Observacions i pronòstics meteorològics de més de 4000 aeroports (METAR i TAF).

Les estacions disponibles són els punts grocs i vermells al mapa.

Posi el ratolí al punt desitjat per veure el nom de l'estació.

Feu clic per veure les observacions i els pronòstics meteorològics.

Per canviar el mapa: feu clic els botons verds amb una creu de color negre per apropar; al botó verd amb un guió per allunyar la imatge; o en les fletxes verdes per a mapes adjacents.


METAR-TAF: